createdAt,value
2022-12-25T00:00:41.413Z,98.28
2022-12-25T00:04:42.862Z,98.12
2022-12-25T00:08:44.270Z,98.67
2022-12-25T00:12:45.794Z,98.60
2022-12-25T00:16:48.692Z,98.51
2022-12-25T00:20:56.491Z,98.47
2022-12-25T00:24:57.884Z,98.74
2022-12-25T00:28:59.333Z,98.81
2022-12-25T00:33:02.093Z,98.73
2022-12-25T00:37:03.550Z,98.86
2022-12-25T00:41:05.683Z,98.29
2022-12-25T00:45:07.608Z,98.43
2022-12-25T00:49:10.510Z,98.06
2022-12-25T00:53:11.963Z,98.37
2022-12-25T00:57:13.388Z,98.23
2022-12-25T01:01:14.911Z,98.56
2022-12-25T01:05:17.756Z,98.39
2022-12-25T01:09:19.182Z,98.07
2022-12-25T01:13:20.576Z,98.51
2022-12-25T01:17:22.014Z,98.52
2022-12-25T01:21:24.795Z,98.44
2022-12-25T01:25:26.206Z,98.50
2022-12-25T01:29:27.628Z,98.58
2022-12-25T01:33:29.245Z,98.41
2022-12-25T01:37:32.020Z,98.03
2022-12-25T01:41:33.407Z,98.25
2022-12-25T01:45:36.134Z,98.55
2022-12-25T01:49:38.708Z,98.92
2022-12-25T01:53:41.501Z,98.92
2022-12-25T01:57:43.708Z,98.81
2022-12-25T02:01:45.592Z,98.52
2022-12-25T02:05:47.649Z,98.36
2022-12-25T02:09:50.924Z,98.30
2022-12-25T02:13:52.315Z,97.82
2022-12-25T02:17:58.109Z,98.25
2022-12-25T02:22:06.617Z,98.02
2022-12-25T02:26:15.059Z,97.43
2022-12-25T02:30:17.831Z,97.65
2022-12-25T02:34:20.688Z,97.67
2022-12-25T02:38:24.717Z,97.35
2022-12-25T02:42:34.374Z,97.51
2022-12-25T02:46:37.149Z,97.63
2022-12-25T02:50:38.722Z,97.26
2022-12-25T02:54:43.353Z,97.71
2022-12-25T02:58:45.771Z,98.52
2022-12-25T03:02:48.997Z,98.82
2022-12-25T03:07:02.242Z,98.37
2022-12-25T03:11:04.966Z,98.26
2022-12-25T03:15:10.116Z,98.35
2022-12-25T03:19:13.034Z,97.62
2022-12-25T03:23:15.506Z,97.73
2022-12-25T03:27:16.969Z,97.66
2022-12-25T03:31:21.715Z,98.45
2022-12-25T03:35:28.043Z,97.40
2022-12-25T03:39:33.789Z,97.96
2022-12-25T03:43:40.993Z,97.95
2022-12-25T03:47:44.418Z,97.89
2022-12-25T03:51:48.936Z,97.55
2022-12-25T03:55:51.172Z,97.57
2022-12-25T03:59:52.534Z,97.17
2022-12-25T04:03:53.935Z,97.33
2022-12-25T04:07:56.688Z,97.02
2022-12-25T04:12:02.450Z,97.19
2022-12-25T04:16:04.696Z,96.60
2022-12-25T04:20:06.927Z,97.20
2022-12-25T04:24:10.715Z,96.88
2022-12-25T04:28:12.136Z,96.85
2022-12-25T04:32:13.492Z,96.75
2022-12-25T04:36:14.887Z,96.71
2022-12-25T04:40:17.770Z,97.41
2022-12-25T04:44:19.103Z,97.79
2022-12-25T04:48:20.509Z,97.23
2022-12-25T04:52:21.841Z,96.98
2022-12-25T04:56:24.578Z,97.01
2022-12-25T05:00:25.896Z,97.09
2022-12-25T05:04:27.235Z,97.72
2022-12-25T05:08:29.037Z,98.34
2022-12-25T05:12:31.752Z,97.33
2022-12-25T05:16:33.140Z,97.40
2022-12-25T05:20:39.715Z,97.50
2022-12-25T05:24:41.699Z,97.11
2022-12-25T05:28:44.650Z,97.21
2022-12-25T05:32:46.883Z,97.30
2022-12-25T05:36:48.198Z,97.70
2022-12-25T05:40:51.107Z,97.98
2022-12-25T05:44:53.836Z,98.35
2022-12-25T05:48:55.192Z,98.38
2022-12-25T05:52:56.546Z,98.61
2022-12-25T05:56:57.922Z,98.83
2022-12-25T06:01:01.074Z,98.89
2022-12-25T06:05:02.461Z,98.77
2022-12-25T06:09:03.890Z,98.83
2022-12-25T06:13:05.311Z,98.85
2022-12-25T06:17:08.030Z,98.79
2022-12-25T06:21:10.068Z,98.22
2022-12-25T06:25:11.425Z,98.04
2022-12-25T06:29:12.775Z,97.86
2022-12-25T06:33:15.473Z,97.11
2022-12-25T06:37:16.818Z,97.46
2022-12-25T06:41:20.830Z,97.46
2022-12-25T06:45:22.350Z,97.53
2022-12-25T06:49:25.263Z,96.99
2022-12-25T06:53:26.587Z,97.45
2022-12-25T06:57:27.935Z,97.86
2022-12-25T07:01:30.774Z,97.63
2022-12-25T07:05:33.578Z,97.83
2022-12-25T07:09:34.931Z,97.91
2022-12-25T07:13:36.270Z,98.20
2022-12-25T07:17:37.574Z,97.86
2022-12-25T07:21:40.257Z,97.75
2022-12-25T07:25:41.740Z,98.16
2022-12-25T07:29:43.090Z,98.63
2022-12-25T07:33:44.769Z,98.84
2022-12-25T07:37:47.453Z,98.89
2022-12-25T07:41:48.819Z,98.70
2022-12-25T07:45:54.088Z,98.64
2022-12-25T07:49:55.473Z,98.52
2022-12-25T07:53:58.182Z,97.96
2022-12-25T07:57:59.527Z,97.28
2022-12-25T08:02:01.074Z,96.73
2022-12-25T08:06:03.530Z,96.27
2022-12-25T08:10:06.855Z,95.49
2022-12-25T08:14:08.714Z,95.21
2022-12-25T08:18:10.040Z,94.51
2022-12-25T08:22:11.382Z,93.76
2022-12-25T08:26:15.269Z,93.47
2022-12-25T08:30:16.729Z,92.75
2022-12-25T08:34:18.140Z,92.27
2022-12-25T08:38:19.476Z,90.99
2022-12-25T08:42:22.161Z,90.63
2022-12-25T08:46:23.665Z,89.48
2022-12-25T08:50:25.522Z,88.49
2022-12-25T08:54:26.890Z,88.46
2022-12-25T08:58:29.619Z,88.49
2022-12-25T09:02:31.203Z,87.53
2022-12-25T09:06:32.731Z,86.64
2022-12-25T09:10:35.545Z,86.53
2022-12-25T09:14:38.320Z,86.05
2022-12-25T09:18:39.664Z,85.86
2022-12-25T09:22:41.015Z,85.19
2022-12-25T09:26:42.380Z,83.85
2022-12-25T09:30:45.138Z,83.78
2022-12-25T09:34:46.474Z,81.82
2022-12-25T09:38:47.830Z,81.31
2022-12-25T09:42:49.401Z,81.71
2022-12-25T09:46:53.774Z,81.86
2022-12-25T09:50:58.638Z,81.54
2022-12-25T09:55:03.284Z,81.70
2022-12-25T09:59:12.917Z,81.73
2022-12-25T10:03:24.307Z,82.38
2022-12-25T10:07:29.244Z,81.82
2022-12-25T10:11:38.198Z,81.17
2022-12-25T10:15:46.811Z,80.93
2022-12-25T10:19:52.957Z,81.59
2022-12-25T10:24:00.032Z,81.45
2022-12-25T10:28:04.027Z,81.07
2022-12-25T10:32:05.479Z,81.64
2022-12-25T10:36:08.917Z,81.27
2022-12-25T10:40:25.043Z,80.39
2022-12-25T10:44:26.376Z,80.46
2022-12-25T10:48:28.826Z,80.36
2022-12-25T10:52:31.581Z,80.00
2022-12-25T10:56:32.905Z,81.21
2022-12-25T11:00:34.290Z,80.86
2022-12-25T11:04:35.769Z,81.32
2022-12-25T11:08:38.797Z,81.70
2022-12-25T11:12:42.739Z,81.26
2022-12-25T11:16:44.151Z,80.96
2022-12-25T11:20:48.256Z,81.51
2022-12-25T11:24:50.950Z,81.10
2022-12-25T11:28:53.725Z,80.84
2022-12-25T11:32:58.637Z,80.99
2022-12-25T11:37:02.123Z,80.75
2022-12-25T11:41:05.704Z,79.79
2022-12-25T11:45:11.802Z,79.95
2022-12-25T11:49:16.033Z,79.82
2022-12-25T11:53:20.168Z,80.47
2022-12-25T11:57:23.314Z,79.79
2022-12-25T12:01:29.204Z,79.80
2022-12-25T12:05:33.820Z,79.69
2022-12-25T12:09:40.214Z,80.01
2022-12-25T12:13:50.116Z,79.94
2022-12-25T12:17:51.462Z,79.51
2022-12-25T12:21:54.033Z,79.58
2022-12-25T12:25:55.634Z,79.69
2022-12-25T12:29:59.882Z,79.07
2022-12-25T12:34:01.546Z,78.54
2022-12-25T12:38:04.546Z,78.95
2022-12-25T12:42:12.439Z,78.79
2022-12-25T12:46:24.357Z,77.92
2022-12-25T12:50:33.161Z,78.34
2022-12-25T12:54:48.567Z,78.12
2022-12-25T12:58:50.282Z,77.39
2022-12-25T13:03:05.761Z,77.70
2022-12-25T13:07:13.047Z,78.38
2022-12-25T13:11:17.132Z,77.82
2022-12-25T13:15:27.135Z,78.44
2022-12-25T13:19:29.980Z,78.55
2022-12-25T13:23:32.435Z,79.41
2022-12-25T13:27:33.918Z,79.75
2022-12-25T13:31:35.359Z,80.05
2022-12-25T13:35:43.633Z,79.49
2022-12-25T13:39:48.671Z,79.42
2022-12-25T13:43:50.095Z,79.32
2022-12-25T13:47:55.497Z,78.21
2022-12-25T13:52:09.850Z,78.47
2022-12-25T13:56:13.419Z,78.89
2022-12-25T14:00:19.003Z,78.79
2022-12-25T14:04:22.835Z,79.53
2022-12-25T14:08:27.413Z,79.37
2022-12-25T14:12:30.029Z,79.77
2022-12-25T14:16:31.524Z,79.65
2022-12-25T14:20:36.662Z,79.16
2022-12-25T14:24:39.906Z,79.11
2022-12-25T14:28:41.435Z,79.84
2022-12-25T14:32:44.429Z,80.04
2022-12-25T14:36:46.143Z,80.16
2022-12-25T14:40:57.724Z,80.22
2022-12-25T14:45:00.448Z,80.28
2022-12-25T14:49:03.438Z,80.04
2022-12-25T14:53:06.195Z,80.77
2022-12-25T14:57:16.824Z,80.61
2022-12-25T15:01:20.867Z,81.38
2022-12-25T15:05:23.641Z,81.39
2022-12-25T15:09:25.245Z,81.44
2022-12-25T15:13:28.194Z,81.78
2022-12-25T15:17:30.433Z,81.88
2022-12-25T15:21:33.706Z,81.85
2022-12-25T15:25:35.043Z,82.52
2022-12-25T15:30:08.436Z,82.63
2022-12-25T15:33:59.796Z,83.20
2022-12-25T15:38:01.156Z,83.06
2022-12-25T15:42:02.521Z,83.36
2022-12-25T15:46:05.565Z,82.98
2022-12-25T15:50:07.596Z,83.31
2022-12-25T15:54:09.586Z,82.76
2022-12-25T15:58:12.070Z,82.87
2022-12-25T16:02:15.769Z,82.76
2022-12-25T16:06:18.551Z,82.81
2022-12-25T16:10:20.296Z,82.47
2022-12-25T16:14:21.651Z,81.74
2022-12-25T16:18:24.363Z,81.49
2022-12-25T16:22:25.731Z,81.83
2022-12-25T16:26:27.125Z,81.80
2022-12-25T16:30:28.471Z,81.78
2022-12-25T16:34:31.156Z,82.06
2022-12-25T16:38:32.556Z,82.32
2022-12-25T16:42:33.967Z,81.99
2022-12-25T16:46:35.926Z,81.99
2022-12-25T16:50:39.521Z,82.22
2022-12-25T16:54:40.854Z,82.53
2022-12-25T16:58:42.277Z,82.40
2022-12-25T17:02:43.992Z,82.75
2022-12-25T17:06:48.046Z,82.82
2022-12-25T17:10:49.376Z,82.72
2022-12-25T17:14:51.603Z,82.20
2022-12-25T17:18:53.242Z,82.15
2022-12-25T17:22:55.952Z,82.24
2022-12-25T17:26:57.298Z,82.55
2022-12-25T17:31:01.840Z,82.31
2022-12-25T17:35:03.334Z,82.86
2022-12-25T17:39:06.093Z,82.54
2022-12-25T17:43:07.466Z,82.38
2022-12-25T17:47:08.848Z,82.48
2022-12-25T17:51:11.565Z,81.87
2022-12-25T17:55:14.342Z,81.67
2022-12-25T17:59:15.690Z,81.67
2022-12-25T18:03:17.340Z,81.28
2022-12-25T18:07:18.841Z,81.33
2022-12-25T18:11:22.678Z,81.26
2022-12-25T18:15:24.031Z,80.97
2022-12-25T18:19:25.492Z,80.00
2022-12-25T18:23:26.849Z,80.58
2022-12-25T18:27:29.563Z,79.89
2022-12-25T18:31:31.070Z,80.26
2022-12-25T18:35:32.547Z,80.53
2022-12-25T18:39:33.905Z,79.95
2022-12-25T18:43:52.569Z,80.22
2022-12-25T18:47:55.832Z,80.65
2022-12-25T18:52:50.230Z,80.63
2022-12-25T18:56:18.611Z,79.53
2022-12-25T19:00:21.500Z,79.32
2022-12-25T19:04:22.970Z,78.28
2022-12-25T19:08:24.331Z,78.47
2022-12-25T19:12:25.695Z,77.50
2022-12-25T19:16:28.487Z,77.05
2022-12-25T19:20:29.876Z,77.39
2022-12-25T19:24:31.678Z,76.75
2022-12-25T19:28:33.037Z,76.67
2022-12-25T19:32:35.743Z,76.84
2022-12-25T19:36:37.795Z,76.52
2022-12-25T19:40:40.331Z,75.88
2022-12-25T19:44:41.924Z,76.42
2022-12-25T19:48:44.791Z,76.68
2022-12-25T19:52:46.111Z,76.93
2022-12-25T19:56:47.722Z,76.62
2022-12-25T20:00:56.747Z,77.38
2022-12-25T20:04:59.547Z,77.92
2022-12-25T20:09:02.161Z,77.55
2022-12-25T20:13:03.522Z,77.73
2022-12-25T20:17:04.952Z,77.86
2022-12-25T20:21:11.455Z,78.40
2022-12-25T20:25:12.813Z,79.37
2022-12-25T20:29:14.155Z,79.45
2022-12-25T20:33:15.489Z,79.79
2022-12-25T20:37:18.212Z,79.89
2022-12-25T20:41:29.021Z,80.45
2022-12-25T20:45:31.183Z,80.35
2022-12-25T20:49:32.616Z,80.87
2022-12-25T20:53:35.569Z,81.94
2022-12-25T20:57:36.963Z,82.38
2022-12-25T21:01:38.389Z,82.63
2022-12-25T21:05:39.814Z,82.84
2022-12-25T21:09:42.536Z,83.17
2022-12-25T21:13:44.302Z,83.07
2022-12-25T21:17:45.673Z,83.14
2022-12-25T21:21:49.213Z,83.81
2022-12-25T21:25:52.083Z,84.26
2022-12-25T21:29:53.429Z,84.42
2022-12-25T21:33:55.445Z,84.70
2022-12-25T21:37:56.849Z,84.80
2022-12-25T21:41:59.596Z,85.08
2022-12-25T21:46:01.620Z,85.53
2022-12-25T21:50:03.023Z,86.43
2022-12-25T21:54:04.745Z,86.30
2022-12-25T21:58:07.627Z,86.32
2022-12-25T22:02:09.529Z,86.41
2022-12-25T22:06:13.754Z,85.99
2022-12-25T22:10:19.073Z,86.49
2022-12-25T22:14:51.875Z,87.41
2022-12-25T22:18:44.085Z,87.58
2022-12-25T22:22:45.829Z,87.23
2022-12-25T22:26:47.170Z,87.42
2022-12-25T22:30:50.050Z,88.81
2022-12-25T22:34:51.533Z,88.63
2022-12-25T22:38:52.921Z,88.24
2022-12-25T22:42:54.643Z,87.94
2022-12-25T22:46:57.484Z,88.07
2022-12-25T22:51:01.169Z,88.06
2022-12-25T22:55:03.646Z,87.85
2022-12-25T22:59:05.145Z,88.52
2022-12-25T23:03:07.970Z,88.54
2022-12-25T23:07:09.504Z,89.11
2022-12-25T23:11:10.834Z,88.90
2022-12-25T23:15:12.179Z,88.56
2022-12-25T23:19:15.113Z,89.12
2022-12-25T23:23:16.932Z,89.33
2022-12-25T23:27:18.343Z,89.75
2022-12-25T23:31:22.322Z,89.47
2022-12-25T23:35:25.200Z,89.80
2022-12-25T23:39:26.924Z,89.79
2022-12-25T23:43:28.409Z,90.19
2022-12-25T23:47:29.759Z,90.76
2022-12-25T23:51:34.367Z,90.83
2022-12-25T23:55:37.474Z,90.91
2022-12-25T23:59:38.931Z,91.05
